Historyczne dane pomiarowe

Dodano dane terminowe – wersja testowa.

Dane z okresu 1951-2019

Wersja bazy: 1.34 [2019-03-16, lista zmian], aktualizacja planowana na 2019-04-15

Dane meteo z obszaru Polski uzyskane na podstawie danych udostępnionych przez Instytut Meteorologii i Gospodarki Wodnej – Państwowy Instytut Badawczy.

 

Wybierz Datę:    

       

TemperaturaWilgotnośćWiatrCiśnienieOpadyŚniegCzas trwania zjawisk
 Stacja t tx tn tng RH VA  wxwx mslp ppp RRR   cm mm wxwxwxwxwxwxwx
1994-08-14 15.7 20.3 12.5 10.1 72.8- 6.0 3.3---- 0.0------------
1994-08-13 17.9 21.2 15.0 13.5 86.5- 7.3 3.3---- 4.9------------
1994-08-12 18.1 20.4 13.4 11.1 90.0- 6.0 2.7---- 0.8------------
1994-08-11 18.9 27.0 14.9 12.1 94.0- 6.0 4.3---- 9.6------------
1994-08-10 20.5 26.1 15.2 12.6 75.3- 3.3 1.7---- 0.0------------
1994-08-09 21.5 29.1 17.4 15.1 86.3- 7.0 3.0---- 5.9------------
1994-08-08 21.8 30.0 17.4 14.9 81.0- 5.0 2.3---- 3.6------------
1994-08-07 22.5 28.6 14.6 11.9 73.3- 5.7 2.0---- 0.0------------
1994-08-06 22.6 31.2 11.2 9.7 69.0- 0.7 1.3---- 0.0------------
1994-08-05 22.1 29.0 14.0 12.0 71.8- 1.7 1.0---- 0.0------------
1994-08-04 22.3 27.8 17.0 14.1 81.0- 4.3 1.0---- 0.0------------
1994-08-03 22.2 30.5 14.6 12.1 82.3- 4.3 2.3---- 12.1------------
1994-08-02 24.7 33.2 13.9 11.0 60.5- 0.7 0.0---- 0.0------------
1994-08-01 25.4 33.6 14.6 12.4 65.0- 1.0 1.7---- 0.0------------
1994-07-31 24.3 32.7 13.8 11.4 66.8- 1.0 1.7---- 0.0------------
1994-07-30 23.4 32.1 12.1 9.9 63.3- 0.0 0.0---- 0.0------------
1994-07-29 23.3 32.2 11.1 8.3 61.5- 0.0 0.0---- 0.0------------
1994-07-28 24.0 31.4 13.4 10.3 55.5- 0.3 0.0---- 0.0------------
1994-07-27 23.4 31.6 12.2 9.9 64.3- 0.3 0.0---- 0.0------------
1994-07-26 23.7 31.2 13.0 10.1 59.5- 0.7 0.0---- 0.0------------
1994-07-25 23.1 30.7 12.2 10.1 61.5- 2.7 1.0---- 0.0------------
1994-07-24 21.8 29.4 10.6 8.1 68.3- 1.0 1.7---- 0.0------------
1994-07-23 20.5 27.4 9.2 6.5 67.5- 1.0 1.3---- 0.0------------
1994-07-22 19.5 27.0 8.6 6.3 63.5- 1.3 3.3---- 0.0------------
1994-07-21 18.9 25.4 7.8 5.1 67.0- 1.7 2.7---- 0.0------------
1994-07-20 18.0 23.0 11.2 9.7 69.5- 3.3 2.0---- 0.0------------
1994-07-19 19.3 24.4 13.6 12.5 81.3- 7.3 4.0---- 0.0------------
1994-07-18 19.9 25.4 16.6 15.0 87.5- 5.7 1.7---- 3.6------------
1994-07-17 21.9 28.4 14.8 12.4 82.0- 4.0 3.7---- 3.0------------
1994-07-16 22.4 29.8 13.8 11.6 72.8- 2.3 1.3---- 0.0------------
1994-07-15 20.8 27.5 13.4 11.3 78.8- 3.3 0.7---- 0.0------------
1994-07-14 20.7 28.0 11.2 9.1 76.3- 4.7 2.3---- 0.0------------
1994-07-13 20.0 26.4 11.2 9.1 76.0- 4.3 3.0---- 0.0------------
1994-07-12 19.8 25.4 15.4 14.9 75.0- 5.0 4.7---- 0.0------------
1994-07-11 16.2 21.5 12.0 9.1 97.0- 7.7 5.7---- 0.0------------
1994-07-10 15.4 19.2 11.0 9.7 90.5- 7.0 4.7---- 0.4------------
1994-07-09 13.1 19.0 9.2 6.1 94.8- 7.3 2.0---- 7.7------------
1994-07-08 17.5 21.6 13.2 7.7 71.5- 6.0 4.3---- 0.0------------
1994-07-07 18.7 26.4 9.0 6.6 71.5- 5.7 4.7---- 0.0------------
1994-07-06 19.8 23.6 11.2 8.1 70.8- 2.0 4.3---- 0.0------------
1994-07-05 19.8 26.4 10.0 7.3 69.3- 3.7 4.0---- 0.2------------
1994-07-04 18.8 26.5 8.0 5.3 68.0- 1.0 1.0---- 0.0------------
1994-07-03 18.1 25.0 7.5 5.1 64.5- 0.0 0.0---- 0.0------------
1994-07-02 17.6 23.0 8.8 6.4 69.0- 1.0 2.3---- 0.0------------
1994-07-01 19.5 22.6 16.4 15.2 69.8- 4.0 3.7---- 0.0------------
1994-06-30 22.6 27.4 16.1 14.0 86.5- 4.0 1.0---- 0.0------------
1994-06-29 23.3 29.4 14.3 12.1 78.8- 1.0 2.0---- 0.0------------
1994-06-28 23.9 28.4 16.1 13.7 76.5- 2.7 2.3---- 0.0------------
1994-06-27 24.8 30.6 18.1 14.4 58.8- 2.7 4.7---- 0.0------------
1994-06-26 20.2 26.2 8.0 5.5 59.0- 0.7 8.7---- 0.0------------
1994-06-25 15.5 21.6 3.1 1.5 66.5- 0.0 3.0---- 0.0------------
1994-06-24 14.2 19.4 3.1 2.4 61.8- 0.3 5.7---- 0.0------------
1994-06-23 18.1 22.2 16.0 13.1 61.8- 3.7 6.3---- 0.0------------
1994-06-22 17.7 25.5 6.3 3.5 72.5- 5.0 2.7---- 0.0------------
1994-06-21 15.5 19.3 7.1 4.0 73.0- 1.7 2.3---- 0.0------------
1994-06-20 18.2 20.2 12.1 8.2 78.0- 3.3 6.7---- 0.0------------
1994-06-19 16.3 22.3 11.1 10.2 87.3- 5.3 5.3---- 0.0------------
1994-06-18 12.1 18.3 2.2 -0.2 80.3- 3.7 1.7---- 5.1------------
1994-06-17 11.6 14.6 8.4 5.4 77.8- 6.7 6.3---- 0.0------------
1994-06-16 13.7 18.2 5.7 3.0 85.3- 5.3 2.7---- 1.7------------
262.2 ms

 

Źródłem pochodzenia danych jest Instytut Meteorologii i Gospodarki Wodnej – Państwowy Instytut Badawczy. Dane Instytutu Meteorologii i Gospodarki Wodnej – Państwowego Instytutu Badawczego zostały przetworzone.

Dane źródłowe można odnaleźć na stronie https://dane.imgw.pl